Time;durP1;ratioP1;P1;durP2;ratioP2;P2;SDS_P1;SDS_P2;PMS_P1;PMS_P2;Temp;Humidity;BMP_temperature;BMP_pressure;BME280_temperature;BME280_humidity;BME280_pressure;Samples;Min_cycle;Max_cycle;Signal;HPM_P1;HPM_P2
2022/03/22 00:00:36;;;;;;;25.77;9.60;;;6.80;99.90;;;7.73;100.00;99591.31;5019403;28;20505;-80
2022/03/22 00:03:06;;;;;;;18.90;8.80;;;6.80;99.90;;;7.74;100.00;99589.56;5021652;28;20542;-80
2022/03/22 00:05:39;;;;;;;15.37;8.67;;;6.80;99.90;;;7.73;100.00;99593.09;5021126;28;20476;-80
2022/03/22 00:08:09;;;;;;;13.40;8.40;;;6.80;99.90;;;7.67;100.00;99596.22;5020677;28;20462;-80
2022/03/22 00:10:40;;;;;;;13.03;8.47;;;6.60;99.90;;;7.65;100.00;99587.72;5019059;28;20533;-80
2022/03/22 00:13:29;;;;;;;14.60;7.80;;;6.50;99.90;;;7.58;100.00;99592.63;5020237;28;20462;-80
2022/03/22 00:15:59;;;;;;;16.30;9.47;;;6.70;99.90;;;7.50;100.00;99595.84;5021838;28;20482;-80
2022/03/22 00:18:49;;;;;;;16.40;9.03;;;6.60;99.90;;;7.44;100.00;99596.38;5018678;28;20473;-80
2022/03/22 00:21:19;;;;;;;14.23;9.43;;;6.60;99.90;;;7.43;100.00;99588.69;5019597;28;20455;-80
2022/03/22 00:23:49;;;;;;;19.13;8.63;;;6.60;99.90;;;7.36;100.00;99593.59;5018016;28;20458;-80
2022/03/22 00:26:21;;;;;;;18.53;9.00;;;6.50;99.90;;;7.37;100.00;99597.03;5019771;28;20472;-80
2022/03/22 00:28:51;;;;;;;11.87;8.63;;;6.40;99.90;;;7.38;100.00;99594.31;5016574;28;20465;-80
2022/03/22 00:31:20;;;;;;;13.60;8.73;;;6.40;99.90;;;7.36;100.00;99592.75;5016341;28;20980;-80
2022/03/22 00:33:51;;;;;;;12.13;8.77;;;6.30;99.90;;;7.34;100.00;99590.31;5018191;28;20461;-80
2022/03/22 00:36:23;;;;;;;14.83;8.73;;;6.30;99.90;;;7.32;100.00;99597.44;5018204;28;20489;-80
2022/03/22 00:38:53;;;;;;;15.07;9.20;;;6.30;99.90;;;7.24;100.00;99596.41;5016174;28;20469;-80
2022/03/22 00:41:24;;;;;;;15.57;9.50;;;6.40;99.90;;;7.16;100.00;99589.22;5016370;28;20481;-80
2022/03/22 00:43:53;;;;;;;13.17;8.20;;;6.20;99.90;;;7.16;100.00;99589.22;5016011;28;20520;-80
2022/03/22 00:46:22;;;;;;;16.37;8.97;;;6.20;99.90;;;7.13;100.00;99593.84;5015105;28;20478;-80
2022/03/22 00:48:52;;;;;;;13.70;8.30;;;6.20;99.90;;;7.12;100.00;99590.44;5014476;28;21108;-79
2022/03/22 00:51:23;;;;;;;22.73;10.30;;;6.10;99.90;;;7.06;100.00;99586.56;5016825;28;20509;-80
2022/03/22 00:53:54;;;;;;;14.40;9.67;;;6.10;99.90;;;7.03;100.00;99586.81;5015573;28;20970;-80
2022/03/22 00:56:25;;;;;;;16.43;9.27;;;6.00;99.90;;;7.00;100.00;99592.28;5019087;28;20840;-80
2022/03/22 01:01:40;;;;;;;13.43;8.23;;;6.00;99.90;;;6.92;100.00;99576.47;5015140;28;20474;-80
2022/03/22 01:04:10;;;;;;;18.23;9.40;;;6.00;99.90;;;6.88;100.00;99576.84;5015393;28;20472;-80
2022/03/22 01:06:40;;;;;;;14.27;7.90;;;6.00;99.90;;;6.87;100.00;99576.00;5014469;28;20458;-80
2022/03/22 01:09:10;;;;;;;18.40;9.80;;;5.90;99.90;;;6.83;100.00;99573.81;5015198;28;20465;-80
2022/03/22 01:11:42;;;;;;;17.47;8.97;;;6.00;99.90;;;6.80;100.00;99579.25;5014806;28;20498;-80
2022/03/22 01:14:13;;;;;;;16.77;9.07;;;6.00;99.90;;;6.78;100.00;99581.97;5017158;28;20457;-80
2022/03/22 01:16:43;;;;;;;15.70;9.50;;;5.80;99.90;;;6.75;100.00;99578.81;5018407;28;20837;-80
2022/03/22 01:19:13;;;;;;;19.97;9.33;;;5.70;99.90;;;6.69;100.00;99587.09;5017620;28;20465;-79
2022/03/22 01:21:43;;;;;;;15.63;9.37;;;5.50;99.90;;;6.59;100.00;99587.81;5017490;28;20480;-79
2022/03/22 01:24:12;;;;;;;16.00;9.50;;;5.50;99.90;;;6.63;100.00;99585.00;5016925;28;20504;-80
2022/03/22 01:26:44;;;;;;;16.10;8.70;;;5.60;99.90;;;6.58;100.00;99581.00;5017837;28;20462;-80
2022/03/22 01:29:14;;;;;;;14.00;8.80;;;5.60;99.90;;;6.50;100.00;99580.78;5016582;28;20434;-80
2022/03/22 01:31:44;;;;;;;16.17;9.23;;;5.70;99.90;;;6.49;100.00;99578.34;5014079;28;20510;-79
2022/03/22 01:34:14;;;;;;;16.80;10.03;;;5.50;99.90;;;6.50;100.00;99583.38;5015270;28;20464;-80
2022/03/22 01:36:45;;;;;;;14.47;9.20;;;5.60;99.90;;;6.48;100.00;99582.69;5015326;28;20458;-80
2022/03/22 01:39:15;;;;;;;15.37;9.00;;;5.60;99.90;;;6.45;100.00;99580.34;5009681;28;21054;-80
2022/03/22 01:41:47;;;;;;;12.80;8.43;;;5.50;99.90;;;6.39;100.00;99580.81;5014638;28;20558;-79
2022/03/22 01:44:17;;;;;;;13.27;8.60;;;5.40;99.90;;;6.33;100.00;99580.47;5014804;28;20460;-79
2022/03/22 01:46:50;;;;;;;14.97;8.60;;;5.40;99.90;;;6.31;100.00;99577.19;5015723;28;20466;-79
2022/03/22 01:49:21;;;;;;;18.43;9.00;;;5.30;99.90;;;6.25;100.00;99572.50;5012704;28;20743;-80
2022/03/22 01:51:52;;;;;;;14.47;8.20;;;5.20;99.90;;;6.23;100.00;99575.19;5012644;28;20490;-81
2022/03/22 01:54:23;;;;;;;17.00;8.23;;;5.30;99.90;;;6.22;100.00;99570.94;5014806;28;20838;-79
2022/03/22 01:56:55;;;;;;;12.33;8.40;;;5.30;99.90;;;6.21;100.00;99571.91;5015328;28;20452;-79
2022/03/22 01:59:25;;;;;;;16.60;9.33;;;5.40;99.90;;;6.19;100.00;99568.59;5016026;28;20464;-80
2022/03/22 02:07:33;;;;;;;17.83;8.70;;;5.20;99.90;;;6.08;100.00;99550.44;5016466;28;20463;-79
2022/03/22 02:10:05;;;;;;;12.40;8.00;;;5.10;99.90;;;6.05;100.00;99566.25;5013532;28;20464;-79
2022/03/22 02:12:37;;;;;;;19.73;9.07;;;5.20;99.90;;;6.06;100.00;99560.13;5011201;28;20488;-79
2022/03/22 02:15:09;;;;;;;16.37;9.07;;;5.10;99.90;;;6.03;100.00;99557.78;5010948;28;20476;-79
2022/03/22 02:17:39;;;;;;;15.50;9.47;;;5.00;99.90;;;5.99;100.00;99561.56;5013125;28;20554;-79
2022/03/22 02:20:13;;;;;;;15.67;9.37;;;5.00;99.90;;;5.90;100.00;99562.28;5014741;28;20461;-80
2022/03/22 02:22:51;;;;;;;14.63;8.80;;;5.00;99.90;;;5.88;100.00;99561.56;5014127;28;20460;-80
2022/03/22 02:25:24;;;;;;;19.63;9.87;;;5.00;99.90;;;5.89;100.00;99560.63;5014765;28;20805;-79
2022/03/22 02:27:54;;;;;;;14.67;9.37;;;4.90;99.90;;;5.87;100.00;99560.75;5012021;28;20513;-79
2022/03/22 02:30:25;;;;;;;15.70;8.57;;;4.90;99.90;;;5.76;100.00;99557.31;5014684;28;20522;-79
2022/03/22 02:32:59;;;;;;;14.20;9.20;;;4.90;99.90;;;5.71;100.00;99562.03;5014249;28;21041;-79
2022/03/22 02:35:29;;;;;;;16.73;9.00;;;4.80;99.90;;;5.61;100.00;99559.31;5012724;28;20462;-79
2022/03/22 02:37:58;;;;;;;13.10;8.47;;;4.70;99.90;;;5.66;100.00;99562.38;5014148;28;20462;-79
2022/03/22 02:40:29;;;;;;;23.00;9.20;;;4.60;99.90;;;5.65;100.00;99568.53;5014233;28;20822;-79
2022/03/22 02:43:02;;;;;;;16.63;8.83;;;4.60;99.90;;;5.67;100.00;99560.59;5013834;28;20464;-79
2022/03/22 02:45:31;;;;;;;16.73;8.73;;;4.60;99.90;;;5.58;100.00;99563.00;5014764;28;20553;-79
2022/03/22 02:48:01;;;;;;;15.57;8.57;;;4.50;99.90;;;5.56;100.00;99558.84;5014937;28;20496;-80
2022/03/22 02:50:31;;;;;;;16.03;9.23;;;4.60;99.90;;;5.57;100.00;99561.31;5012705;28;20496;-80
2022/03/22 02:53:01;;;;;;;17.13;9.47;;;4.60;99.90;;;5.54;100.00;99561.56;5014738;28;20498;-79
2022/03/22 02:55:32;;;;;;;13.53;8.87;;;4.60;99.90;;;5.52;100.00;99562.59;5015130;28;21228;-79
2022/03/22 02:58:02;;;;;;;15.70;9.20;;;4.60;99.90;;;5.48;100.00;99562.00;5013596;28;20463;-79
2022/03/22 03:00:30;;;;;;;13.03;8.63;;;4.40;99.90;;;5.46;100.00;99555.28;5018095;28;20465;-79
2022/03/22 03:03:01;;;;;;;15.23;8.20;;;4.50;99.90;;;5.40;100.00;99559.19;5013431;28;20557;-79
2022/03/22 03:05:31;;;;;;;11.73;8.07;;;4.40;99.90;;;5.36;100.00;99557.78;5013647;28;20522;-80
2022/03/22 03:08:00;;;;;;;14.43;8.83;;;4.40;99.90;;;5.29;100.00;99559.19;5017222;28;20938;-79
2022/03/22 03:10:33;;;;;;;16.70;9.30;;;4.40;99.90;;;5.30;100.00;99563.44;5015561;28;20504;-79
2022/03/22 03:13:06;;;;;;;13.70;8.73;;;4.30;99.90;;;5.30;100.00;99558.25;5011370;28;20943;-79
2022/03/22 03:15:36;;;;;;;14.80;8.73;;;4.40;99.90;;;5.25;100.00;99559.53;5010762;28;20837;-79
2022/03/22 03:18:06;;;;;;;16.93;8.50;;;4.30;99.90;;;5.23;100.00;99551.88;5013060;28;20485;-79
2022/03/22 03:20:35;;;;;;;15.03;9.30;;;4.30;99.90;;;5.19;100.00;99560.00;5012617;28;20949;-79
2022/03/22 03:23:06;;;;;;;16.13;8.63;;;4.30;99.90;;;5.15;100.00;99564.59;5017387;28;20494;-79
2022/03/22 03:25:37;;;;;;;14.47;8.17;;;4.30;99.90;;;5.11;100.00;99551.97;5016186;28;20810;-79
2022/03/22 03:28:09;;;;;;;12.90;8.63;;;4.20;99.90;;;5.09;100.00;99554.69;5018924;28;20463;-79
2022/03/22 03:30:38;;;;;;;14.83;9.33;;;4.10;99.90;;;5.07;100.00;99556.53;5020332;28;20459;-79
2022/03/22 03:33:08;;;;;;;14.80;8.90;;;4.10;99.90;;;5.02;100.00;99553.50;5020952;28;20494;-79
2022/03/22 03:35:38;;;;;;;14.80;8.03;;;4.00;99.90;;;4.97;100.00;99559.00;5020431;28;20439;-79
2022/03/22 03:38:07;;;;;;;16.60;8.97;;;4.00;99.90;;;4.97;100.00;99556.41;5021714;28;20868;-79
2022/03/22 03:43:25;;;;;;;15.40;8.60;;;3.90;99.90;;;4.89;100.00;99551.00;5020384;28;20466;-79
2022/03/22 03:48:41;;;;;;;14.70;8.77;;;4.00;99.90;;;4.83;100.00;99563.56;5017028;28;20470;-79
2022/03/22 03:51:10;;;;;;;15.70;9.37;;;3.90;99.90;;;4.84;100.00;99567.81;5018416;28;20482;-79
2022/03/22 03:53:41;;;;;;;16.40;9.20;;;3.80;99.90;;;4.79;100.00;99569.94;5014670;28;20521;-79
2022/03/22 03:56:13;;;;;;;19.17;9.40;;;3.80;99.90;;;4.80;100.00;99574.16;5017783;28;20492;-79
2022/03/22 03:58:43;;;;;;;16.17;9.93;;;3.80;99.90;;;4.83;100.00;99579.94;5015345;28;20457;-79
2022/03/22 04:01:13;;;;;;;14.23;8.83;;;3.80;99.90;;;4.86;100.00;99578.91;5018831;28;20466;-79
2022/03/22 04:03:45;;;;;;;15.50;9.03;;;3.90;99.90;;;4.84;100.00;99573.81;5019799;28;20837;-79
2022/03/22 04:06:14;;;;;;;15.50;9.33;;;3.90;99.90;;;4.83;100.00;99576.50;5020863;28;20454;-79
2022/03/22 04:08:44;;;;;;;15.23;8.70;;;3.90;99.90;;;4.80;100.00;99579.34;5018378;28;20466;-80
2022/03/22 04:11:15;;;;;;;16.40;8.30;;;3.90;99.90;;;4.82;100.00;99582.66;5018679;28;20455;-79
2022/03/22 04:13:45;;;;;;;20.33;9.67;;;3.90;99.90;;;4.81;100.00;99583.59;5019970;28;20564;-80
2022/03/22 04:16:15;;;;;;;16.70;9.17;;;3.90;99.90;;;4.80;100.00;99584.50;5016620;28;20454;-79
2022/03/22 04:18:45;;;;;;;15.97;9.23;;;3.80;99.90;;;4.78;100.00;99584.63;5014717;28;20467;-79
2022/03/22 04:21:16;;;;;;;14.83;8.63;;;3.80;99.90;;;4.78;100.00;99581.22;5017459;28;20556;-80
2022/03/22 04:24:05;;;;;;;13.67;9.13;;;3.80;99.90;;;4.75;100.00;99573.69;5016390;28;20562;-79
2022/03/22 04:26:55;;;;;;;13.97;8.83;;;3.80;99.90;;;4.74;100.00;99574.59;5017517;28;20479;-79
2022/03/22 04:32:44;;;;;;;13.83;8.37;;;3.80;99.90;;;4.69;100.00;99580.13;5009720;28;20893;-79
2022/03/22 04:35:17;;;;;;;15.60;9.07;;;3.70;99.90;;;4.64;100.00;99578.81;5003085;28;20968;-79
2022/03/22 04:37:49;;;;;;;16.73;9.60;;;3.70;99.90;;;4.60;100.00;99590.31;5016009;28;20827;-79
2022/03/22 04:40:18;;;;;;;12.53;7.60;;;3.70;99.90;;;4.55;100.00;99583.72;5016100;28;20463;-79
2022/03/22 04:42:51;;;;;;;15.30;9.23;;;3.60;99.90;;;4.55;100.00;99582.88;5016650;28;20551;-80
2022/03/22 04:45:20;;;;;;;19.17;9.27;;;3.50;99.90;;;4.52;100.00;99586.53;5014777;28;20465;-79
2022/03/22 04:47:50;;;;;;;14.50;8.90;;;3.60;99.90;;;4.50;100.00;99593.59;5015066;28;20466;-80
2022/03/22 04:50:20;;;;;;;15.37;8.90;;;3.60;99.90;;;4.49;100.00;99589.34;5015433;28;20486;-80
2022/03/22 04:58:30;;;;;;;13.20;8.40;;;3.50;99.90;;;4.32;100.00;99594.91;4945912;28;20866;-79
2022/03/22 05:00:59;;;;;;;20.27;9.80;;;3.40;99.90;;;4.33;100.00;99596.56;5014951;28;20875;-79
2022/03/22 05:03:30;;;;;;;18.20;10.23;;;3.40;99.90;;;4.32;100.00;99600.09;5014302;28;20869;-79
2022/03/22 05:08:46;;;;;;;16.53;9.43;;;3.30;99.90;;;4.30;100.00;99599.38;5014668;28;20461;-79
2022/03/22 05:11:16;;;;;;;14.33;9.00;;;3.40;99.90;;;4.27;100.00;99598.75;5016608;28;20469;-80
2022/03/22 05:13:48;;;;;;;15.37;8.67;;;3.30;99.90;;;4.26;100.00;99604.88;5018132;28;20493;-80
2022/03/22 05:16:17;;;;;;;15.90;8.73;;;3.30;99.90;;;4.24;100.00;99596.38;5015939;28;20460;-79
2022/03/22 05:18:47;;;;;;;15.83;9.10;;;3.30;99.90;;;4.20;100.00;99600.94;5014688;28;20539;-80
2022/03/22 05:21:17;;;;;;;16.93;8.90;;;3.30;99.90;;;4.16;100.00;99609.03;5015303;28;20493;-79
2022/03/22 05:23:47;;;;;;;21.50;9.33;;;3.30;99.90;;;4.12;100.00;99608.44;5012510;28;21422;-79
2022/03/22 05:26:17;;;;;;;26.07;8.57;;;3.20;99.90;;;4.13;100.00;99615.25;5015908;28;20471;-79
2022/03/22 05:28:49;;;;;;;20.07;11.37;;;3.10;99.90;;;4.09;100.00;99603.47;5018448;28;20458;-76
2022/03/22 05:31:21;;;;;;;16.23;9.20;;;3.30;99.90;;;4.06;100.00;99614.06;5016932;28;20499;-79
2022/03/22 05:33:52;;;;;;;16.43;8.93;;;3.10;99.90;;;4.06;100.00;99608.88;5014287;28;20544;-79
2022/03/22 05:36:21;;;;;;;17.37;9.00;;;3.10;99.90;;;4.04;100.00;99610.72;5014473;28;20478;-80
2022/03/22 05:38:52;;;;;;;17.30;9.50;;;3.10;99.90;;;4.00;100.00;99615.28;5020782;28;20922;-90
2022/03/22 05:41:22;;;;;;;15.90;9.80;;;3.20;99.90;;;3.94;100.00;99617.47;5014947;28;20863;-78
2022/03/22 05:43:53;;;;;;;14.97;8.53;;;3.10;99.90;;;3.94;100.00;99620.06;5011725;28;20535;-71
2022/03/22 05:46:22;;;;;;;16.23;8.87;;;3.10;99.90;;;3.92;100.00;99614.97;5013079;28;20471;-70
2022/03/22 05:48:52;;;;;;;14.33;8.93;;;3.00;99.90;;;3.91;100.00;99620.28;5016927;28;20906;-70
2022/03/22 05:51:22;;;;;;;18.00;10.33;;;3.10;99.90;;;3.85;100.00;99615.53;4999735;28;20971;-70
2022/03/22 05:53:52;;;;;;;18.53;10.10;;;3.10;99.90;;;3.84;100.00;99621.63;4998048;28;20907;-71
2022/03/22 05:56:22;;;;;;;16.83;8.70;;;3.00;99.90;;;3.84;100.00;99614.69;5016734;28;20477;-71
2022/03/22 05:58:53;;;;;;;18.70;9.77;;;2.90;99.90;;;3.85;100.00;99612.94;5017566;28;20523;-70
2022/03/22 06:01:23;;;;;;;16.70;9.00;;;3.00;99.90;;;3.82;100.00;99618.31;5017301;28;20458;-70
2022/03/22 06:03:54;;;;;;;16.73;9.77;;;2.90;99.90;;;3.83;100.00;99610.44;5017427;28;20448;-71
2022/03/22 06:06:25;;;;;;;15.80;9.40;;;2.90;99.90;;;3.81;100.00;99612.34;5016362;28;20462;-71
2022/03/22 06:08:54;;;;;;;15.30;8.80;;;2.90;99.90;;;3.79;100.00;99610.75;5016354;28;20470;-70
2022/03/22 06:11:23;;;;;;;15.17;8.73;;;2.90;99.90;;;3.79;100.00;99606.41;5016384;28;20457;-70
2022/03/22 06:13:55;;;;;;;19.30;9.73;;;2.90;99.90;;;3.79;100.00;99610.75;5016704;28;20512;-70
2022/03/22 06:16:25;;;;;;;16.57;9.20;;;2.90;99.90;;;3.78;100.00;99614.31;5016177;28;20454;-70
2022/03/22 06:18:56;;;;;;;12.83;8.77;;;2.80;99.90;;;3.81;100.00;99614.09;5016471;28;20557;-70
2022/03/22 06:21:25;;;;;;;20.20;10.20;;;2.90;99.90;;;3.82;100.00;99608.78;5013165;28;20550;-71
2022/03/22 06:23:55;;;;;;;16.63;9.77;;;2.80;99.90;;;3.83;100.00;99609.63;5012008;28;20475;-71
2022/03/22 06:26:25;;;;;;;16.73;9.47;;;2.90;99.90;;;3.84;100.00;99616.47;5016529;28;20939;-71
2022/03/22 06:28:56;;;;;;;15.63;9.20;;;2.90;99.90;;;3.84;100.00;99619.88;5016661;28;20499;-71
2022/03/22 06:31:24;;;;;;;13.63;9.03;;;2.90;99.90;;;3.84;100.00;99617.28;5016737;28;20814;-71
2022/03/22 06:33:54;;;;;;;19.87;9.53;;;3.00;99.90;;;3.87;100.00;99618.84;5017035;28;20830;-71
2022/03/22 06:36:23;;;;;;;19.80;10.30;;;3.00;99.90;;;3.90;100.00;99613.44;5017017;28;21005;-71
2022/03/22 06:38:54;;;;;;;14.20;8.67;;;3.00;99.90;;;3.92;100.00;99612.41;5016005;28;20458;-71
2022/03/22 06:41:23;;;;;;;18.03;9.73;;;3.10;99.90;;;3.94;100.00;99614.88;5013717;28;20467;-70
2022/03/22 06:43:53;;;;;;;13.17;8.80;;;3.10;99.90;;;3.96;100.00;99618.19;5016131;28;20472;-71
2022/03/22 06:46:26;;;;;;;17.97;9.90;;;3.10;99.90;;;3.97;100.00;99614.66;5016351;28;20504;-71
2022/03/22 06:48:57;;;;;;;18.10;9.27;;;3.10;99.90;;;3.99;100.00;99613.63;5017184;28;21207;-71
2022/03/22 06:51:28;;;;;;;19.20;8.90;;;3.10;99.90;;;4.01;100.00;99616.13;5014429;28;20483;-71
2022/03/22 06:53:57;;;;;;;15.73;9.03;;;3.10;99.90;;;4.03;100.00;99615.06;5017899;28;20568;-71
2022/03/22 06:56:26;;;;;;;17.33;9.73;;;3.10;99.90;;;4.05;100.00;99610.63;5015063;28;20462;-71
2022/03/22 06:58:55;;;;;;;17.07;9.73;;;3.10;99.90;;;4.08;100.00;99612.16;5015936;28;20476;-71
2022/03/22 07:01:27;;;;;;;23.63;9.50;;;3.30;99.90;;;4.09;100.00;99613.81;5014679;28;20874;-71
2022/03/22 07:03:56;;;;;;;16.80;10.47;;;3.20;99.90;;;4.13;100.00;99615.25;5016143;28;20960;-71
2022/03/22 07:06:26;;;;;;;19.33;9.27;;;3.20;99.90;;;4.14;100.00;99611.72;5016096;28;20485;-71
2022/03/22 07:08:56;;;;;;;14.90;8.93;;;3.30;99.90;;;4.18;100.00;99622.69;5013285;28;20535;-71
2022/03/22 07:14:13;;;;;;;16.13;9.97;;;3.30;99.90;;;4.22;100.00;99614.63;5015553;28;20484;-71
2022/03/22 07:16:47;;;;;;;18.87;10.20;;;3.30;99.90;;;4.24;100.00;99622.25;5015694;28;20462;-71
2022/03/22 07:19:16;;;;;;;19.60;9.77;;;3.40;99.90;;;4.28;100.00;99623.69;5015224;28;20462;-70
2022/03/22 07:21:46;;;;;;;16.43;9.13;;;3.40;99.90;;;4.27;100.00;99622.88;5015483;28;21002;-70
2022/03/22 07:24:19;;;;;;;16.53;9.13;;;3.40;99.90;;;4.31;100.00;99615.72;5016960;28;20438;-71
2022/03/22 07:26:49;;;;;;;22.10;10.87;;;3.50;99.90;;;4.36;100.00;99621.41;5015743;28;20458;-71
2022/03/22 07:29:19;;;;;;;14.70;9.37;;;3.50;99.90;;;4.40;100.00;99617.66;5011782;28;20537;-71
2022/03/22 07:31:51;;;;;;;18.03;10.47;;;3.50;99.90;;;4.45;100.00;99616.38;5017131;28;20489;-72
2022/03/22 07:34:22;;;;;;;14.50;9.53;;;3.60;99.90;;;4.47;100.00;99614.53;5014454;28;20487;-71
2022/03/22 07:36:52;;;;;;;18.37;10.37;;;3.60;99.90;;;4.50;100.00;99619.50;5013730;28;21266;-70
2022/03/22 07:39:24;;;;;;;14.90;9.33;;;3.60;99.90;;;4.55;100.00;99617.38;5012315;28;20535;-71
2022/03/22 07:41:54;;;;;;;15.40;10.23;;;3.60;99.90;;;4.60;100.00;99614.47;5011212;28;21302;-71
2022/03/22 07:44:24;;;;;;;19.27;10.10;;;3.80;99.90;;;4.64;100.00;99610.72;5010697;28;20553;-71
2022/03/22 07:46:55;;;;;;;13.90;9.17;;;3.90;99.90;;;4.69;100.00;99613.78;5010925;28;20465;-70
2022/03/22 07:55:01;;;;;;;15.87;9.43;;;3.90;99.90;;;4.85;100.00;99613.53;5013788;28;20503;-71
2022/03/22 07:57:31;;;;;;;16.57;9.80;;;3.90;99.90;;;4.90;100.00;99614.81;5009626;28;20466;-70
2022/03/22 08:00:01;;;;;;;16.90;9.80;;;4.00;99.90;;;4.98;100.00;99622.03;5013330;28;20472;-71
2022/03/22 08:02:36;;;;;;;17.70;9.83;;;4.10;99.90;;;5.03;100.00;99612.97;5010500;28;20513;-70
2022/03/22 08:05:09;;;;;;;13.17;8.90;;;4.20;99.90;;;5.10;100.00;99615.13;5014128;28;20459;-71
2022/03/22 08:07:40;;;;;;;19.77;9.90;;;4.20;99.90;;;5.15;100.00;99608.66;5010393;28;20528;-70
2022/03/22 08:10:10;;;;;;;19.70;11.23;;;4.30;99.90;;;5.20;100.00;99610.91;5016502;28;20473;-71
2022/03/22 08:12:41;;;;;;;24.37;14.00;;;4.30;99.90;;;5.28;100.00;99617.16;5016083;28;20474;-71
2022/03/22 08:15:11;;;;;;;19.33;10.30;;;4.40;99.90;;;5.34;100.00;99621.09;5009320;28;20596;-71
2022/03/22 08:17:42;;;;;;;14.50;9.87;;;4.50;99.90;;;5.40;100.00;99615.44;5016734;28;20467;-71
2022/03/22 08:20:13;;;;;;;17.87;10.37;;;4.50;99.90;;;5.46;100.00;99613.19;5016020;28;20526;-71
2022/03/22 08:22:51;;;;;;;17.87;10.00;;;4.60;99.90;;;5.53;100.00;99614.38;5016284;28;21021;-71
2022/03/22 08:25:31;;;;;;;20.80;10.50;;;4.70;99.90;;;5.61;100.00;99613.81;5014912;28;20465;-71
2022/03/22 08:28:03;;;;;;;19.77;11.20;;;4.70;99.90;;;5.71;100.00;99613.94;5017208;28;20505;-71
2022/03/22 08:30:35;;;;;;;22.20;10.70;;;4.90;99.90;;;5.79;100.00;99611.56;5014910;28;20520;-71
2022/03/22 08:33:09;;;;;;;24.30;8.67;;;5.00;99.90;;;5.86;100.00;99605.84;5017253;28;20536;-71
2022/03/22 08:35:42;;;;;;;14.20;9.60;;;5.10;99.90;;;5.95;100.00;99612.91;5017403;28;20579;-71
2022/03/22 08:38:12;;;;;;;23.13;9.43;;;5.30;99.90;;;6.07;100.00;99609.31;5017517;28;20492;-71
2022/03/22 08:40:42;;;;;;;13.63;8.07;;;5.40;99.90;;;6.16;100.00;99605.19;5014958;28;20471;-71
2022/03/22 08:43:12;;;;;;;13.90;8.40;;;5.50;99.90;;;6.25;100.00;99594.06;5016040;28;20480;-71
2022/03/22 08:45:42;;;;;;;20.87;8.00;;;5.60;99.90;;;6.40;100.00;99592.88;5015355;28;20548;-71
2022/03/22 08:48:14;;;;;;;16.10;7.90;;;5.70;99.20;;;6.57;94.86;99594.09;5016128;28;20724;-71
2022/03/22 08:50:48;;;;;;;13.80;7.57;;;6.00;97.30;;;6.74;90.83;99590.13;5012799;28;21043;-71
2022/03/22 08:53:21;;;;;;;15.27;7.87;;;6.10;97.00;;;6.85;87.38;99585.72;5014356;28;20463;-71
2022/03/22 08:55:54;;;;;;;12.63;7.93;;;6.20;96.30;;;7.02;77.31;99590.38;5014620;28;20500;-71
2022/03/22 08:58:24;;;;;;;19.50;7.63;;;6.50;94.20;;;7.18;76.67;99586.50;5015364;28;20462;-72
2022/03/22 09:00:54;;;;;;;14.40;7.23;;;6.60;94.00;;;7.26;78.19;99582.31;5014113;28;20477;-71
2022/03/22 09:03:27;;;;;;;15.80;7.43;;;6.70;95.60;;;7.38;79.32;99585.66;5016107;28;20466;-71
2022/03/22 09:06:08;;;;;;;23.23;8.40;;;6.70;95.00;;;7.47;74.61;99577.91;5015157;28;20466;-72
2022/03/22 09:08:41;;;;;;;14.37;8.40;;;6.90;93.10;;;7.57;70.45;99576.16;5015240;28;20462;-70
2022/03/22 09:11:11;;;;;;;21.30;11.60;;;7.00;93.10;;;7.71;71.17;99580.19;5016855;28;20466;-71
2022/03/22 09:13:42;;;;;;;17.40;8.67;;;7.10;93.30;;;7.77;72.72;99571.06;5023213;28;20466;-71
2022/03/22 09:16:16;;;;;;;13.30;7.10;;;7.10;94.20;;;7.82;73.27;99574.91;5022421;28;20971;-71
2022/03/22 09:18:47;;;;;;;13.27;7.77;;;7.20;94.30;;;7.87;73.83;99569.31;5020448;28;20673;-72
2022/03/22 09:21:18;;;;;;;12.63;6.80;;;7.30;94.40;;;7.93;74.29;99571.38;5021584;28;20454;-71
2022/03/22 09:23:49;;;;;;;13.00;7.77;;;7.30;94.20;;;8.00;73.68;99572.50;5020177;28;20579;-71
2022/03/22 09:26:19;;;;;;;11.13;7.00;;;7.30;93.10;;;8.07;71.39;99561.41;5021745;28;20471;-71
2022/03/22 09:28:52;;;;;;;12.93;7.10;;;7.40;93.30;;;8.14;70.33;99559.09;5021373;28;20454;-71
2022/03/22 09:31:24;;;;;;;12.10;7.93;;;7.50;93.20;;;8.21;70.73;99564.59;5020211;28;20462;-71
2022/03/22 09:33:57;;;;;;;13.13;7.20;;;7.60;93.70;;;8.28;71.11;99565.69;5021313;28;20826;-71
2022/03/22 09:36:27;;;;;;;11.03;7.67;;;7.60;93.30;;;8.35;68.24;99559.03;5022648;28;20713;-71
2022/03/22 09:38:58;;;;;;;16.73;7.57;;;7.80;92.80;;;8.45;66.52;99558.06;5020343;28;20478;-71
2022/03/22 09:41:32;;;;;;;11.13;7.10;;;7.90;92.60;;;8.54;66.40;99559.84;5022643;28;20462;-71
2022/03/22 09:44:02;;;;;;;24.27;7.50;;;8.00;92.80;;;8.62;66.35;99555.75;5018774;28;20944;-71
2022/03/22 09:46:33;;;;;;;12.50;7.47;;;8.00;92.80;;;8.69;65.15;99551.63;5020073;28;20493;-71
2022/03/22 09:49:05;;;;;;;23.97;8.00;;;8.10;92.10;;;8.75;65.53;99548.44;5019774;28;20462;-72
2022/03/22 09:51:47;;;;;;;13.67;7.57;;;8.20;92.60;;;8.80;65.12;99552.31;5019611;28;21014;-71
2022/03/22 09:54:22;;;;;;;14.47;8.17;;;8.30;92.40;;;8.86;65.97;99546.53;5019828;28;20968;-71
2022/03/22 09:56:54;;;;;;;14.87;8.63;;;8.30;92.40;;;8.93;65.38;99536.38;5020832;28;20496;-72
2022/03/22 09:59:24;;;;;;;11.17;7.53;;;8.40;91.90;;;8.98;64.35;99537.59;5021659;28;20481;-72
2022/03/22 10:01:54;;;;;;;11.43;7.23;;;8.50;92.30;;;9.08;64.20;99542.81;5021811;28;20466;-72
2022/03/22 10:04:36;;;;;;;12.83;8.10;;;8.50;91.70;;;9.13;63.45;99539.78;5022960;28;20554;-72
2022/03/22 10:07:07;;;;;;;17.90;8.30;;;8.60;91.90;;;9.20;63.41;99539.06;5024032;28;20463;-72
2022/03/22 10:09:39;;;;;;;18.27;7.63;;;8.70;92.10;;;9.28;62.07;99528.72;5018811;28;20458;-72
2022/03/22 10:12:12;;;;;;;13.90;8.27;;;8.80;91.40;;;9.37;62.75;99530.47;5024981;28;20465;-72
2022/03/22 10:14:43;;;;;;;12.60;8.07;;;8.80;91.90;;;9.46;59.88;99528.81;5017965;28;20465;-72
2022/03/22 10:17:17;;;;;;;13.27;7.67;;;9.10;90.70;;;9.57;59.63;99529.47;5014230;28;20488;-71
2022/03/22 10:19:51;;;;;;;14.03;8.20;;;9.10;90.70;;;9.69;57.48;99526.63;5020906;28;20497;-72
2022/03/22 10:22:26;;;;;;;16.00;8.13;;;9.30;89.70;;;9.76;57.91;99528.53;5023471;28;20464;-72
2022/03/22 10:25:00;;;;;;;12.87;7.67;;;9.30;90.30;;;9.85;58.28;99519.03;5019750;28;20469;-72
2022/03/22 10:27:32;;;;;;;14.03;8.27;;;9.40;90.20;;;9.91;58.16;99523.66;5019565;28;20497;-72
2022/03/22 10:30:22;;;;;;;13.20;8.20;;;9.40;90.40;;;10.00;56.50;99523.59;5019603;28;20965;-72
2022/03/22 10:32:52;;;;;;;18.30;8.10;;;9.50;88.50;;;10.08;56.50;99515.03;5018448;28;20524;-72
2022/03/22 10:35:26;;;;;;;11.47;6.97;;;9.60;89.50;;;10.13;55.43;99521.44;5019868;28;20490;-72
2022/03/22 10:37:57;;;;;;;18.30;8.43;;;9.60;87.70;;;10.19;55.41;99522.69;5021282;28;20461;-72
2022/03/22 10:40:32;;;;;;;18.27;10.63;;;9.70;88.50;;;10.26;54.37;99526.34;5021810;28;20484;-71
2022/03/22 10:43:03;;;;;;;12.50;7.80;;;9.80;87.30;;;10.33;53.71;99511.72;5016796;28;20462;-72
2022/03/22 10:45:43;;;;;;;15.03;6.60;;;9.90;86.80;;;10.40;53.78;99520.63;5016992;28;20462;-72
2022/03/22 10:48:19;;;;;;;14.93;8.80;;;9.90;87.20;;;10.49;51.58;99509.25;5017188;28;20976;-72
2022/03/22 10:50:51;;;;;;;10.90;7.57;;;10.10;83.90;;;10.55;52.21;99510.44;5021837;28;20482;-72
2022/03/22 10:53:24;;;;;;;17.10;8.20;;;10.00;84.50;;;10.62;52.43;99514.06;5018566;28;20864;-72
2022/03/22 10:56:01;;;;;;;18.33;8.40;;;10.10;84.60;;;10.68;51.40;99517.91;5016628;28;20490;-72
2022/03/22 10:58:32;;;;;;;10.67;7.40;;;10.20;84.10;;;10.75;52.10;99508.47;5019906;28;20526;-72
2022/03/22 11:01:06;;;;;;;17.77;7.83;;;10.30;84.70;;;10.78;52.54;99509.00;5021170;28;20461;-72
2022/03/22 11:03:37;;;;;;;13.70;7.87;;;10.30;85.60;;;10.86;51.63;99513.47;5018516;28;20461;-72
2022/03/22 11:06:09;;;;;;;13.60;8.23;;;10.40;84.40;;;10.90;51.98;99509.56;5018581;28;20565;-71
2022/03/22 11:08:41;;;;;;;13.73;9.23;;;10.30;84.00;;;10.96;50.79;99516.81;5020536;28;20576;-72
2022/03/22 11:11:11;;;;;;;13.07;8.37;;;10.50;83.40;;;11.02;51.08;99511.78;5020139;28;20978;-71